Time;durP1;ratioP1;P1;durP2;ratioP2;P2;SDS_P1;SDS_P2;PMS_P1;PMS_P2;Temp;Humidity;BMP_temperature;BMP_pressure;BME280_temperature;BME280_humidity;BME280_pressure;Samples;Min_cycle;Max_cycle;Signal;HPM_P1;HPM_P2
2022/10/15 00:00:06;;;;;;;10.90;4.25;;;13.70;86.90;;;;;;5097010;28;20051;-68
2022/10/15 00:02:32;;;;;;;23.67;5.07;;;13.70;86.90;;;;;;5115151;28;20028;-68
2022/10/15 00:04:57;;;;;;;8.65;3.95;;;13.70;87.50;;;;;;5097292;28;20092;-68
2022/10/15 00:07:24;;;;;;;7.93;3.92;;;13.60;86.70;;;;;;5097328;28;20027;-68
2022/10/15 00:09:49;;;;;;;14.68;4.47;;;13.50;86.80;;;;;;5097273;28;20080;-68
2022/10/15 00:12:15;;;;;;;15.88;7.18;;;13.50;87.00;;;;;;5114978;28;20121;-68
2022/10/15 00:14:41;;;;;;;6.40;4.00;;;13.40;87.10;;;;;;5097053;28;20028;-68
2022/10/15 00:17:06;;;;;;;6.53;3.75;;;13.30;87.40;;;;;;5097148;28;20035;-68
2022/10/15 00:19:32;;;;;;;5.80;3.85;;;13.30;87.40;;;;;;5096866;28;20025;-67
2022/10/15 00:21:58;;;;;;;7.38;3.72;;;13.30;87.30;;;;;;5114803;28;20036;-68
2022/10/15 00:24:23;;;;;;;5.78;3.40;;;13.30;87.00;;;;;;5096783;28;20028;-68
2022/10/15 00:26:49;;;;;;;5.93;3.70;;;13.30;86.70;;;;;;5096922;28;20028;-68
2022/10/15 00:29:14;;;;;;;7.72;3.83;;;13.30;86.30;;;;;;5114567;28;20027;-68
2022/10/15 00:31:40;;;;;;;4.30;3.30;;;13.30;86.00;;;;;;5114528;28;20444;-68
2022/10/15 00:34:06;;;;;;;14.27;3.63;;;13.20;86.50;;;;;;5096716;28;20036;-68
2022/10/15 00:36:34;;;;;;;8.70;3.53;;;13.10;86.80;;;;;;5114511;28;20028;-68
2022/10/15 00:39:01;;;;;;;13.05;3.63;;;13.10;87.10;;;;;;5114469;28;20023;-68
2022/10/15 00:41:30;;;;;;;8.05;3.75;;;13.00;87.00;;;;;;5114408;28;20028;-68
2022/10/15 00:43:59;;;;;;;5.72;3.47;;;13.00;86.80;;;;;;5114371;28;20113;-68
2022/10/15 00:46:34;;;;;;;7.05;3.50;;;13.00;86.70;;;;;;5114340;28;20084;-68
2022/10/15 00:49:25;;;;;;;16.23;3.78;;;13.10;86.50;;;;;;5114285;28;20489;-68
2022/10/15 00:52:19;;;;;;;4.55;3.30;;;13.10;86.00;;;;;;5114308;28;20084;-68
2022/10/15 00:54:56;;;;;;;5.55;3.50;;;13.00;86.30;;;;;;5114137;28;20031;-68
2022/10/15 00:57:23;;;;;;;7.43;3.83;;;13.00;86.20;;;;;;5096279;28;20031;-68
2022/10/15 00:59:56;;;;;;;10.57;3.97;;;12.90;86.30;;;;;;5113946;28;20040;-68
2022/10/15 01:02:21;;;;;;;;;;;12.90;86.70;;;;;;5096884;28;20034;-68
2022/10/15 01:04:48;;;;;;;7.72;3.40;;;12.90;86.70;;;;;;5096026;28;19951;-68
2022/10/15 01:07:14;;;;;;;6.53;3.50;;;12.80;86.70;;;;;;5095953;28;20020;-68
2022/10/15 01:09:43;;;;;;;5.80;3.72;;;12.80;86.80;;;;;;5113943;28;20039;-68
2022/10/15 01:12:18;;;;;;;7.50;4.00;;;12.90;86.70;;;;;;5079695;28;20054;-68
2022/10/15 01:15:07;;;;;;;15.10;7.55;;;12.80;86.60;;;;;;5113876;28;20027;-68
2022/10/15 01:17:37;;;;;;;18.25;8.88;;;12.80;87.30;;;;;;5113892;28;20024;-68
2022/10/15 01:20:18;;;;;;;16.65;9.15;;;12.90;88.00;;;;;;5113860;28;20076;-68
2022/10/15 01:23:19;;;;;;;16.83;9.45;;;12.90;88.60;;;;;;5095771;28;20024;-68
2022/10/15 01:26:07;;;;;;;20.88;10.65;;;13.00;89.20;;;;;;5095868;28;20030;-68
2022/10/15 01:28:39;;;;;;;23.98;12.20;;;13.00;90.20;;;;;;5113647;28;20023;-68
2022/10/15 01:31:31;;;;;;;27.37;12.60;;;13.10;91.10;;;;;;5095788;28;20028;-68
2022/10/15 01:34:03;;;;;;;24.50;12.18;;;13.10;91.30;;;;;;5113493;28;20028;-68
2022/10/15 01:36:47;;;;;;;29.33;12.30;;;13.10;91.80;;;;;;5113666;28;20540;-68
2022/10/15 01:39:29;;;;;;;28.05;12.50;;;13.20;92.10;;;;;;5113625;28;20024;-68
2022/10/15 01:42:19;;;;;;;25.60;12.60;;;13.20;92.10;;;;;;5095740;28;20012;-68
2022/10/15 01:44:53;;;;;;;32.88;13.85;;;13.20;92.50;;;;;;5112818;28;20043;-68
2022/10/15 01:47:29;;;;;;;29.58;14.32;;;13.30;92.70;;;;;;5113513;28;20024;-68
2022/10/15 01:49:56;;;;;;;31.45;15.13;;;13.30;92.80;;;;;;5095638;28;20024;-68
2022/10/15 01:52:29;;;;;;;28.13;14.98;;;13.40;92.80;;;;;;5113450;28;20032;-68
2022/10/15 01:54:55;;;;;;;33.47;14.80;;;13.40;92.80;;;;;;5113402;28;20028;-68
2022/10/15 01:57:24;;;;;;;32.78;14.57;;;13.40;92.90;;;;;;5113386;28;20031;-68
2022/10/15 01:59:50;;;;;;;32.17;15.15;;;13.50;93.00;;;;;;5113163;28;20055;-69
2022/10/15 02:02:16;;;;;;;34.00;15.30;;;13.50;92.80;;;;;;5095517;28;20021;-68
2022/10/15 02:04:41;;;;;;;29.90;14.57;;;13.60;93.20;;;;;;5095703;28;20028;-68
2022/10/15 02:07:46;;;;;;;30.02;15.07;;;13.70;92.70;;;;;;5095557;28;20404;-68
2022/10/15 02:10:36;;;;;;;31.27;15.05;;;13.70;92.60;;;;;;5113459;28;20024;-68
2022/10/15 02:13:11;;;;;;;30.08;14.75;;;13.80;92.70;;;;;;5113393;28;20028;-68
2022/10/15 02:15:46;;;;;;;27.42;14.57;;;13.80;92.70;;;;;;5113221;28;20032;-68
2022/10/15 02:18:25;;;;;;;32.08;14.95;;;13.80;92.60;;;;;;5115381;28;20030;-68
2022/10/15 02:20:57;;;;;;;31.92;15.38;;;13.90;92.70;;;;;;5117356;28;20021;-68
2022/10/15 02:23:29;;;;;;;;;;;13.90;92.50;;;;;;5117576;28;20016;-68
2022/10/15 02:25:57;;;;;;;24.63;14.25;;;13.90;92.50;;;;;;5117151;28;19975;-68
2022/10/15 02:28:26;;;;;;;26.90;14.48;;;13.90;92.50;;;;;;5099426;28;20060;-68
2022/10/15 02:30:53;;;;;;;28.50;14.52;;;13.90;92.50;;;;;;5116962;28;20020;-68
2022/10/15 02:33:20;;;;;;;26.05;13.60;;;13.90;92.50;;;;;;5099334;28;20024;-68
2022/10/15 02:35:47;;;;;;;26.50;14.27;;;13.90;92.50;;;;;;5116827;28;20020;-68
2022/10/15 02:38:17;;;;;;;31.55;14.88;;;13.90;92.40;;;;;;5116831;28;20073;-68
2022/10/15 02:40:43;;;;;;;28.95;14.88;;;13.90;92.40;;;;;;5116949;28;20018;-68
2022/10/15 02:43:11;;;;;;;25.67;13.18;;;13.90;92.40;;;;;;5116731;28;20046;-68
2022/10/15 02:45:37;;;;;;;30.10;14.80;;;14.00;92.40;;;;;;5116682;28;20058;-68
2022/10/15 02:48:04;;;;;;;28.50;13.98;;;14.00;92.20;;;;;;5098897;28;20107;-68
2022/10/15 02:50:29;;;;;;;26.73;14.02;;;14.10;92.30;;;;;;5116608;28;20054;-68
2022/10/15 02:52:55;;;;;;;25.55;14.50;;;14.10;92.20;;;;;;5098893;28;20036;-68
2022/10/15 02:55:21;;;;;;;25.58;13.10;;;14.10;92.20;;;;;;5098588;28;20032;-68
2022/10/15 02:57:46;;;;;;;26.92;14.00;;;14.20;92.10;;;;;;5116600;28;20047;-68
2022/10/15 03:00:12;;;;;;;26.42;13.45;;;14.10;92.40;;;;;;5098455;28;20056;-68
2022/10/15 03:02:38;;;;;;;27.52;13.38;;;14.10;92.00;;;;;;5098588;28;20028;-68
2022/10/15 03:05:04;;;;;;;25.75;14.32;;;14.20;92.00;;;;;;5116308;28;20032;-68
2022/10/15 03:07:29;;;;;;;25.55;13.07;;;14.20;91.90;;;;;;5098307;28;20028;-68
2022/10/15 03:09:55;;;;;;;24.92;13.20;;;14.20;91.90;;;;;;5098329;28;20020;-68
2022/10/15 03:12:22;;;;;;;25.35;13.27;;;14.20;91.90;;;;;;5116187;28;20032;-68
2022/10/15 03:14:48;;;;;;;25.42;13.52;;;14.20;91.90;;;;;;5098548;28;20028;-68
2022/10/15 03:17:14;;;;;;;27.35;14.05;;;14.20;91.90;;;;;;5116073;28;20030;-68
2022/10/15 03:19:40;;;;;;;26.30;13.50;;;14.20;91.70;;;;;;5116033;28;20044;-68
2022/10/15 03:22:05;;;;;;;23.13;13.10;;;14.10;91.60;;;;;;5098018;28;20040;-68
2022/10/15 03:24:31;;;;;;;22.60;12.85;;;14.10;91.40;;;;;;5115922;28;20039;-68
2022/10/15 03:26:57;;;;;;;23.48;12.90;;;14.00;91.40;;;;;;5115901;28;20039;-68
2022/10/15 03:29:22;;;;;;;24.60;13.25;;;13.90;91.40;;;;;;5114442;28;20058;-68
2022/10/15 03:31:48;;;;;;;25.23;13.48;;;13.90;91.40;;;;;;5097862;28;20032;-68
2022/10/15 03:34:13;;;;;;;27.50;14.20;;;13.80;91.60;;;;;;5115694;28;20028;-68
2022/10/15 03:36:39;;;;;;;26.17;14.15;;;13.70;91.70;;;;;;5098080;28;20036;-68
2022/10/15 03:39:05;;;;;;;27.13;13.77;;;13.70;91.80;;;;;;5115670;28;20028;-68
2022/10/15 03:41:30;;;;;;;24.80;13.57;;;13.60;91.90;;;;;;5115623;28;20020;-68
2022/10/15 03:44:01;;;;;;;28.73;14.45;;;13.50;92.20;;;;;;5115559;28;20039;-68
2022/10/15 03:46:26;;;;;;;31.23;15.13;;;13.50;92.50;;;;;;5115532;28;20027;-69
2022/10/15 03:48:52;;;;;;;30.25;14.90;;;13.50;92.70;;;;;;5097536;28;20055;-68
2022/10/15 03:51:18;;;;;;;28.70;14.20;;;13.50;92.80;;;;;;5115450;28;20020;-68
2022/10/15 03:53:44;;;;;;;30.13;15.50;;;13.50;93.00;;;;;;5115273;28;20386;-68
2022/10/15 03:56:09;;;;;;;33.25;15.55;;;13.60;92.90;;;;;;5097507;28;20043;-68
2022/10/15 03:58:35;;;;;;;28.80;15.10;;;13.60;93.00;;;;;;5080418;28;20055;-69
2022/10/15 04:01:00;;;;;;;32.28;14.43;;;13.60;93.00;;;;;;5097281;28;20038;-68
2022/10/15 04:03:26;;;;;;;29.40;14.13;;;13.70;93.00;;;;;;5115185;28;20493;-68
2022/10/15 04:05:52;;;;;;;30.13;14.85;;;13.70;92.90;;;;;;5097388;28;20031;-68
2022/10/15 04:08:18;;;;;;;27.75;14.32;;;13.70;93.00;;;;;;5115051;28;20425;-68
2022/10/15 04:10:44;;;;;;;33.05;14.50;;;13.70;93.00;;;;;;5115041;28;20035;-68
2022/10/15 04:13:10;;;;;;;32.38;15.23;;;13.70;93.00;;;;;;5097120;28;20031;-68
2022/10/15 04:15:38;;;;;;;29.90;14.70;;;13.70;93.10;;;;;;5097260;28;20058;-68
2022/10/15 04:18:04;;;;;;;33.95;15.05;;;13.70;93.10;;;;;;5114876;28;20046;-68
2022/10/15 04:20:30;;;;;;;31.98;14.45;;;13.70;93.10;;;;;;5114862;28;20032;-69
2022/10/15 04:22:55;;;;;;;33.42;14.52;;;13.80;93.00;;;;;;5114802;28;20024;-68
2022/10/15 04:25:21;;;;;;;31.77;15.32;;;13.80;93.00;;;;;;5114878;28;20470;-68
2022/10/15 04:27:46;;;;;;;32.88;15.73;;;13.80;92.90;;;;;;5114726;28;20042;-68
2022/10/15 04:30:12;;;;;;;29.77;14.25;;;13.80;92.90;;;;;;5096787;28;20490;-68
2022/10/15 04:32:38;;;;;;;32.00;14.27;;;13.90;92.90;;;;;;5114631;28;20028;-68
2022/10/15 04:35:05;;;;;;;33.08;15.07;;;13.90;92.90;;;;;;5114490;28;20107;-68
2022/10/15 04:37:33;;;;;;;32.30;14.95;;;13.90;92.90;;;;;;5096616;28;20074;-69
2022/10/15 04:39:59;;;;;;;34.97;14.55;;;13.90;93.00;;;;;;5114057;28;20032;-68
2022/10/15 04:42:25;;;;;;;34.03;14.48;;;13.90;93.00;;;;;;5114410;28;20032;-68
2022/10/15 04:44:50;;;;;;;34.72;15.45;;;14.00;93.10;;;;;;5114396;28;20059;-68
2022/10/15 04:47:16;;;;;;;36.55;15.40;;;14.00;93.00;;;;;;5114330;28;20056;-68
2022/10/15 04:49:41;;;;;;;34.00;13.55;;;14.00;93.20;;;;;;5114368;28;20032;-68
2022/10/15 04:52:07;;;;;;;30.90;13.55;;;13.90;93.20;;;;;;5096422;28;20039;-68
2022/10/15 04:54:32;;;;;;;40.63;14.85;;;14.00;93.30;;;;;;5114137;28;20028;-68
2022/10/15 04:56:58;;;;;;;30.48;13.82;;;14.00;93.30;;;;;;5114165;28;20035;-68
2022/10/15 04:59:24;;;;;;;40.03;14.95;;;14.00;93.20;;;;;;5113841;28;20052;-68
2022/10/15 05:01:49;;;;;;;33.83;14.27;;;14.00;93.20;;;;;;5113981;28;20035;-68
2022/10/15 05:04:15;;;;;;;35.42;15.05;;;14.00;93.10;;;;;;5096101;28;20035;-69
2022/10/15 05:06:40;;;;;;;35.00;14.48;;;14.10;93.20;;;;;;5114018;28;20024;-68
2022/10/15 05:09:06;;;;;;;31.40;13.65;;;14.00;93.20;;;;;;5096143;28;20076;-68
2022/10/15 05:11:35;;;;;;;35.65;14.90;;;14.10;93.30;;;;;;5096103;28;20035;-68
2022/10/15 05:14:01;;;;;;;35.25;16.05;;;14.00;93.30;;;;;;5095867;28;20020;-68
2022/10/15 05:16:28;;;;;;;37.38;15.30;;;14.10;93.40;;;;;;5114022;28;20024;-68
2022/10/15 05:18:57;;;;;;;40.58;16.20;;;14.10;93.60;;;;;;5113841;28;20016;-68
2022/10/15 05:21:23;;;;;;;40.65;16.50;;;14.10;93.70;;;;;;5113803;28;20050;-68
2022/10/15 05:23:49;;;;;;;35.95;14.57;;;14.10;93.80;;;;;;5113767;28;20119;-68
2022/10/15 05:26:20;;;;;;;41.53;15.82;;;14.10;94.00;;;;;;5113754;28;20024;-68
2022/10/15 05:28:46;;;;;;;43.70;16.10;;;14.10;94.10;;;;;;5113700;28;20156;-68
2022/10/15 05:31:14;;;;;;;41.42;16.52;;;14.10;94.10;;;;;;5113670;28;20113;-68
2022/10/15 05:33:40;;;;;;;47.95;16.70;;;14.10;94.20;;;;;;5095694;28;20089;-69
2022/10/15 05:36:20;;;;;;;43.58;16.35;;;14.10;94.10;;;;;;5095679;28;20087;-68
2022/10/15 05:38:47;;;;;;;41.78;16.33;;;14.10;94.10;;;;;;5113581;28;20047;-68
2022/10/15 05:41:13;;;;;;;43.22;15.23;;;14.10;94.10;;;;;;5113560;28;20079;-68
2022/10/15 05:43:39;;;;;;;44.30;17.02;;;14.10;94.20;;;;;;5095768;28;20028;-68
2022/10/15 05:46:05;;;;;;;44.63;15.60;;;14.10;94.40;;;;;;5113541;28;20020;-68
2022/10/15 05:48:31;;;;;;;45.15;16.10;;;14.10;94.30;;;;;;5113522;28;20032;-68
2022/10/15 05:51:05;;;;;;;39.95;15.40;;;14.10;94.30;;;;;;5113349;28;20035;-69
2022/10/15 05:53:31;;;;;;;47.75;16.05;;;14.10;94.20;;;;;;5115808;28;20024;-68
2022/10/15 05:56:00;;;;;;;38.70;15.68;;;14.20;94.20;;;;;;5099819;28;20030;-68
2022/10/15 05:58:27;;;;;;;42.58;16.17;;;14.20;94.10;;;;;;5117619;28;20020;-68
2022/10/15 06:00:54;;;;;;;40.72;14.35;;;14.10;94.10;;;;;;5099434;28;20051;-68
2022/10/15 06:03:20;;;;;;;41.65;14.80;;;14.10;94.00;;;;;;5099796;28;20032;-68
2022/10/15 06:05:46;;;;;;;43.92;15.52;;;14.10;94.00;;;;;;5117591;28;20080;-68
2022/10/15 06:08:11;;;;;;;37.47;15.05;;;14.20;93.90;;;;;;5099608;28;20049;-68
2022/10/15 06:10:37;;;;;;;35.97;14.32;;;14.20;93.80;;;;;;5117508;28;20032;-68
2022/10/15 06:13:04;;;;;;;35.83;13.77;;;14.20;93.80;;;;;;5082633;28;20064;-68
2022/10/15 06:15:30;;;;;;;35.75;14.13;;;14.20;93.70;;;;;;5099205;28;20024;-68
2022/10/15 06:17:55;;;;;;;34.08;14.93;;;14.30;93.60;;;;;;5099263;28;20015;-68
2022/10/15 06:20:21;;;;;;;32.50;13.13;;;14.30;93.60;;;;;;5099255;28;20479;-68
2022/10/15 06:22:46;;;;;;;36.58;13.75;;;14.30;93.50;;;;;;5099276;28;20028;-67
2022/10/15 06:25:12;;;;;;;35.13;13.93;;;14.40;93.30;;;;;;5117228;28;20036;-67
2022/10/15 06:27:38;;;;;;;32.35;13.75;;;14.40;93.30;;;;;;5117061;28;20020;-68
2022/10/15 06:30:05;;;;;;;36.33;14.07;;;14.40;93.20;;;;;;5099205;28;20398;-68
2022/10/15 06:32:30;;;;;;;31.23;12.80;;;14.50;93.10;;;;;;5117123;28;20028;-68
2022/10/15 06:34:56;;;;;;;29.75;12.02;;;14.40;93.10;;;;;;5116862;28;20032;-68
2022/10/15 06:37:21;;;;;;;30.20;13.05;;;14.40;93.30;;;;;;5099140;28;20016;-67
2022/10/15 06:39:47;;;;;;;29.58;12.13;;;14.40;93.20;;;;;;5099015;28;20479;-68
2022/10/15 06:42:13;;;;;;;29.85;12.77;;;14.40;93.30;;;;;;5116741;28;20024;-67
2022/10/15 06:44:39;;;;;;;32.47;13.00;;;14.40;93.40;;;;;;5116712;28;20052;-67
2022/10/15 06:47:05;;;;;;;30.67;13.65;;;14.40;93.30;;;;;;5116674;28;20046;-67
2022/10/15 06:49:30;;;;;;;32.97;12.63;;;14.50;93.30;;;;;;5116643;28;20032;-68
2022/10/15 06:51:57;;;;;;;27.73;12.75;;;14.50;93.20;;;;;;5098634;28;20032;-67
2022/10/15 06:54:24;;;;;;;28.95;11.55;;;14.50;93.20;;;;;;5116490;28;20016;-67
2022/10/15 06:56:50;;;;;;;26.98;11.48;;;14.40;93.10;;;;;;5116442;28;20028;-67
2022/10/15 06:59:16;;;;;;;28.40;12.32;;;14.40;93.10;;;;;;5116455;28;20020;-67
2022/10/15 07:01:41;;;;;;;23.35;11.43;;;14.40;93.20;;;;;;5116272;28;20428;-67
2022/10/15 07:04:07;;;;;;;29.40;10.90;;;14.40;93.60;;;;;;5098120;28;20484;-67
2022/10/15 07:06:36;;;;;;;25.20;11.23;;;14.40;93.20;;;;;;5116193;28;20039;-67
2022/10/15 07:09:03;;;;;;;26.13;11.93;;;14.40;93.20;;;;;;5116260;28;20032;-66
2022/10/15 07:11:28;;;;;;;27.73;11.80;;;14.50;93.30;;;;;;5116206;28;20021;-66
2022/10/15 07:13:56;;;;;;;28.67;11.95;;;14.50;93.30;;;;;;5098306;28;20578;-66
2022/10/15 07:16:21;;;;;;;27.98;11.85;;;14.50;93.30;;;;;;5098567;28;20016;-66
2022/10/15 07:18:47;;;;;;;24.05;10.73;;;14.50;93.20;;;;;;5081516;28;20024;-66
2022/10/15 07:21:13;;;;;;;29.35;12.15;;;14.50;93.20;;;;;;5116030;28;20020;-66
2022/10/15 07:23:38;;;;;;;29.20;12.18;;;14.50;93.30;;;;;;5098040;28;20031;-66
2022/10/15 07:26:04;;;;;;;25.80;11.18;;;14.50;93.10;;;;;;5116007;28;20028;-66
2022/10/15 07:28:30;;;;;;;27.75;11.80;;;14.50;93.00;;;;;;5115781;28;20032;-66
2022/10/15 07:31:04;;;;;;;25.15;10.65;;;14.60;92.90;;;;;;5097960;28;20050;-66
2022/10/15 07:33:32;;;;;;;24.92;10.35;;;14.60;92.90;;;;;;5115861;28;20022;-66
2022/10/15 07:35:57;;;;;;;23.60;11.15;;;14.60;92.90;;;;;;5115728;28;20032;-68
2022/10/15 07:38:23;;;;;;;29.30;11.30;;;14.70;93.00;;;;;;5115701;28;20020;-68
2022/10/15 07:40:49;;;;;;;26.35;11.30;;;14.70;92.90;;;;;;5115642;28;20029;-68
2022/10/15 07:43:14;;;;;;;25.75;11.20;;;14.70;93.00;;;;;;5115588;28;20020;-68
2022/10/15 07:45:40;;;;;;;25.60;11.48;;;14.70;93.10;;;;;;5115573;28;20021;-68
2022/10/15 07:48:06;;;;;;;27.40;11.63;;;14.70;93.00;;;;;;5115492;28;20103;-68
2022/10/15 07:50:31;;;;;;;27.95;11.25;;;14.80;93.00;;;;;;5097635;28;20040;-68
2022/10/15 07:52:57;;;;;;;26.83;11.75;;;14.80;93.10;;;;;;5115350;28;20034;-69
2022/10/15 07:55:22;;;;;;;25.10;11.13;;;14.80;93.20;;;;;;5080700;28;20102;-68
2022/10/15 07:57:48;;;;;;;26.08;10.63;;;14.80;93.10;;;;;;5097567;28;20021;-67
2022/10/15 08:00:14;;;;;;;27.35;11.55;;;14.90;93.20;;;;;;5097121;28;20494;-69
2022/10/15 08:02:39;;;;;;;27.85;11.68;;;15.00;93.20;;;;;;5097498;28;20096;-68
2022/10/15 08:05:06;;;;;;;29.50;11.75;;;15.00;93.00;;;;;;5097402;28;20032;-68
2022/10/15 08:07:32;;;;;;;26.48;11.27;;;15.00;93.00;;;;;;5097329;28;20028;-69
2022/10/15 08:09:57;;;;;;;31.55;12.20;;;15.00;92.80;;;;;;5115082;28;20036;-69
2022/10/15 08:12:23;;;;;;;25.58;10.73;;;15.00;92.80;;;;;;5080435;28;20027;-68
2022/10/15 08:14:48;;;;;;;24.13;10.80;;;15.00;92.80;;;;;;5096514;28;20028;-69
2022/10/15 08:17:14;;;;;;;25.00;10.82;;;15.10;92.80;;;;;;5114753;28;20092;-68
2022/10/15 08:19:40;;;;;;;22.63;10.00;;;15.00;92.70;;;;;;5097030;28;20034;-68
2022/10/15 08:22:05;;;;;;;25.38;10.23;;;15.10;92.60;;;;;;5114861;28;20066;-68
2022/10/15 08:24:31;;;;;;;28.35;11.05;;;15.10;92.60;;;;;;5114811;28;20036;-68
2022/10/15 08:26:57;;;;;;;23.05;10.57;;;15.20;92.80;;;;;;5096828;28;20040;-68
2022/10/15 08:29:23;;;;;;;23.92;9.88;;;15.30;93.10;;;;;;5096794;28;20032;-68
2022/10/15 08:31:49;;;;;;;23.90;10.60;;;15.40;92.50;;;;;;5114668;28;20028;-68
2022/10/15 08:34:16;;;;;;;24.13;10.35;;;15.50;92.70;;;;;;5080071;28;20035;-68
2022/10/15 08:36:41;;;;;;;22.02;10.02;;;15.60;92.30;;;;;;5114587;28;20023;-68
2022/10/15 08:39:08;;;;;;;21.23;9.75;;;15.60;92.10;;;;;;5114546;28;20028;-68
2022/10/15 08:41:45;;;;;;;20.45;9.18;;;15.60;92.00;;;;;;5114488;28;20021;-68
2022/10/15 08:44:53;;;;;;;20.33;9.30;;;15.60;91.80;;;;;;5114497;28;20054;-68
2022/10/15 08:47:39;;;;;;;19.20;8.00;;;15.60;92.10;;;;;;5111154;28;20036;-68
2022/10/15 08:50:19;;;;;;;16.92;8.57;;;15.70;92.10;;;;;;5114379;28;20035;-68
2022/10/15 08:52:48;;;;;;;16.63;8.25;;;15.80;91.80;;;;;;5114321;28;20066;-68
2022/10/15 08:55:19;;;;;;;15.02;6.97;;;15.80;91.80;;;;;;5114174;28;20031;-68
2022/10/15 08:57:45;;;;;;;17.67;7.23;;;15.80;91.70;;;;;;5114229;28;20031;-69
2022/10/15 09:00:19;;;;;;;16.88;6.82;;;15.80;91.30;;;;;;5113965;28;20301;-68
2022/10/15 09:02:55;;;;;;;22.52;7.28;;;15.80;91.40;;;;;;5114092;28;20016;-68
2022/10/15 09:05:37;;;;;;;17.35;7.63;;;15.90;91.40;;;;;;5114096;28;20035;-68
2022/10/15 09:08:45;;;;;;;13.90;6.55;;;15.90;91.50;;;;;;5114096;28;20051;-68
2022/10/15 09:11:39;;;;;;;13.18;5.75;;;15.90;91.40;;;;;;5085066;28;20032;-68
2022/10/15 09:14:10;;;;;;;15.13;6.65;;;15.90;91.00;;;;;;5114054;28;20024;-68
2022/10/15 09:16:38;;;;;;;16.20;7.07;;;15.80;91.20;;;;;;5114088;28;20047;-68
2022/10/15 09:19:14;;;;;;;13.45;5.78;;;15.90;91.20;;;;;;5113847;28;20262;-68
2022/10/15 09:21:40;;;;;;;12.00;5.88;;;15.90;91.40;;;;;;5113852;28;20020;-69
2022/10/15 09:24:10;;;;;;;14.93;6.40;;;16.00;91.20;;;;;;5095960;28;20032;-68
2022/10/15 09:26:47;;;;;;;13.23;5.93;;;15.90;91.20;;;;;;5113703;28;20044;-68
2022/10/15 09:29:16;;;;;;;13.57;6.10;;;15.90;91.20;;;;;;5113740;28;20039;-68
2022/10/15 09:32:12;;;;;;;13.43;5.80;;;15.90;91.20;;;;;;5113824;28;20028;-68
2022/10/15 09:34:41;;;;;;;16.95;6.20;;;15.90;91.10;;;;;;5095717;28;20028;-68
2022/10/15 09:37:18;;;;;;;11.63;5.22;;;15.90;91.30;;;;;;5113615;28;20492;-68
2022/10/15 09:40:33;;;;;;;11.45;5.80;;;15.90;91.40;;;;;;5095810;28;20084;-68
2022/10/15 09:43:00;;;;;;;12.40;5.25;;;15.90;91.30;;;;;;5095937;28;20028;-69
2022/10/15 09:45:26;;;;;;;14.77;5.63;;;15.90;91.40;;;;;;5113514;28;20024;-68
2022/10/15 09:47:59;;;;;;;11.95;5.82;;;15.90;91.30;;;;;;5113495;28;20057;-68
2022/10/15 09:50:39;;;;;;;15.00;6.13;;;15.90;91.40;;;;;;5113534;28;20035;-68
2022/10/15 09:53:32;;;;;;;13.75;5.90;;;15.90;91.30;;;;;;5113514;28;20021;-69
2022/10/15 09:56:03;;;;;;;;;;;16.00;91.40;;;;;;5113808;28;20068;-68
2022/10/15 09:58:58;;;;;;;14.48;6.50;;;15.90;91.40;;;;;;5113442;28;19971;-68
2022/10/15 10:01:29;;;;;;;13.07;6.40;;;16.00;91.40;;;;;;5095064;28;20040;-68
2022/10/15 10:04:19;;;;;;;16.33;7.55;;;15.90;91.60;;;;;;5113448;28;20027;-68
2022/10/15 10:06:52;;;;;;;15.80;6.30;;;16.00;91.80;;;;;;5113523;28;20020;-68
2022/10/15 10:09:24;;;;;;;17.30;6.90;;;15.90;92.00;;;;;;5113502;28;20474;-68
2022/10/15 10:11:56;;;;;;;13.82;6.57;;;15.90;92.10;;;;;;5113349;28;20020;-68
2022/10/15 10:14:35;;;;;;;16.90;6.85;;;15.90;92.30;;;;;;5113149;28;20050;-68
2022/10/15 10:17:06;;;;;;;17.35;7.60;;;16.00;92.60;;;;;;5095376;28;20113;-68
2022/10/15 10:19:32;;;;;;;13.70;6.60;;;15.90;92.80;;;;;;5113258;28;20429;-68
2022/10/15 10:22:16;;;;;;;14.13;6.25;;;15.90;93.00;;;;;;5113216;28;20024;-68
2022/10/15 10:24:42;;;;;;;16.20;7.00;;;15.80;93.20;;;;;;5095349;28;20020;-68
2022/10/15 10:27:18;;;;;;;17.15;6.93;;;15.80;93.20;;;;;;5095376;28;20035;-68
2022/10/15 10:29:50;;;;;;;15.18;7.00;;;15.80;93.40;;;;;;5113008;28;20076;-68
2022/10/15 10:32:22;;;;;;;16.83;6.93;;;15.80;93.50;;;;;;5113317;28;20046;-68
2022/10/15 10:34:49;;;;;;;11.73;5.82;;;15.90;93.50;;;;;;5112963;28;20039;-68
2022/10/15 10:37:15;;;;;;;14.02;6.60;;;15.90;93.50;;;;;;5113030;28;20016;-68
2022/10/15 10:39:42;;;;;;;12.65;5.90;;;15.90;93.60;;;;;;5115656;28;20425;-68
2022/10/15 10:42:24;;;;;;;13.10;6.15;;;15.90;93.50;;;;;;5116846;28;20043;-68
2022/10/15 10:44:52;;;;;;;9.88;4.97;;;16.00;93.60;;;;;;5116789;28;20053;-68
2022/10/15 10:47:23;;;;;;;12.73;6.00;;;15.90;93.90;;;;;;5116722;28;20030;-69
2022/10/15 10:49:55;;;;;;;11.95;5.45;;;15.90;94.00;;;;;;5116768;28;20028;-68
2022/10/15 10:52:33;;;;;;;10.63;4.97;;;15.90;94.20;;;;;;5116687;28;20088;-68
2022/10/15 10:55:01;;;;;;;12.48;5.28;;;16.00;94.20;;;;;;5116543;28;20035;-68
2022/10/15 10:57:34;;;;;;;10.88;5.30;;;16.00;94.20;;;;;;5116545;28;20036;-69
2022/10/15 11:00:03;;;;;;;10.25;5.20;;;16.00;94.40;;;;;;5116342;28;20068;-69
2022/10/15 11:02:29;;;;;;;8.18;4.43;;;16.00;94.30;;;;;;5116497;28;20047;-69
2022/10/15 11:04:54;;;;;;;11.43;4.60;;;16.00;94.20;;;;;;5116550;28;20017;-69
2022/10/15 11:07:40;;;;;;;9.40;4.30;;;16.00;94.30;;;;;;5116322;28;20537;-69
2022/10/15 11:10:40;;;;;;;8.80;4.43;;;16.00;94.40;;;;;;5116255;28;20050;-68
2022/10/15 11:13:15;;;;;;;8.75;4.50;;;16.10;94.50;;;;;;5116275;28;20032;-68
2022/10/15 11:16:02;;;;;;;7.60;3.97;;;16.00;94.50;;;;;;5116306;28;20024;-68
2022/10/15 11:18:40;;;;;;;8.85;4.00;;;16.10;94.40;;;;;;5116147;28;20143;-68
2022/10/15 11:21:56;;;;;;;7.90;4.13;;;16.00;94.60;;;;;;5116124;28;20024;-68
2022/10/15 11:24:50;;;;;;;9.90;4.05;;;16.10;94.80;;;;;;5053883;28;20034;-68
2022/10/15 11:27:48;;;;;;;9.20;4.57;;;16.20;94.70;;;;;;5053861;28;20042;-68
2022/10/15 11:30:35;;;;;;;7.13;3.67;;;16.20;94.70;;;;;;5086422;28;20039;-68
2022/10/15 11:33:34;;;;;;;8.95;4.03;;;16.20;94.80;;;;;;5115898;28;20132;-68
2022/10/15 11:36:26;;;;;;;8.52;3.97;;;16.20;95.10;;;;;;5097750;28;20027;-68
2022/10/15 11:39:13;;;;;;;6.50;3.80;;;16.10;95.30;;;;;;5097858;28;20035;-68
2022/10/15 11:41:50;;;;;;;6.18;3.75;;;16.20;95.20;;;;;;5115843;28;20028;-68
2022/10/15 11:44:28;;;;;;;7.85;4.10;;;16.20;95.30;;;;;;5097729;28;20028;-68
2022/10/15 11:46:59;;;;;;;6.93;3.53;;;16.20;95.30;;;;;;5115745;28;20083;-68
2022/10/15 11:49:51;;;;;;;8.07;3.10;;;16.20;95.50;;;;;;5115117;28;20450;-68
2022/10/15 11:52:34;;;;;;;5.50;2.95;;;16.30;95.40;;;;;;5097366;28;20031;-67
2022/10/15 11:55:45;;;;;;;5.30;3.30;;;16.40;95.30;;;;;;5097567;28;20110;-68
2022/10/15 11:58:22;;;;;;;5.97;3.53;;;16.40;95.30;;;;;;5053234;28;20488;-68
2022/10/15 12:00:55;;;;;;;6.55;3.38;;;16.40;95.30;;;;;;5053128;28;20057;-68
2022/10/15 12:03:36;;;;;;;8.32;3.63;;;16.50;95.20;;;;;;5092851;28;20048;-68
2022/10/15 12:06:10;;;;;;;6.78;3.47;;;16.50;95.20;;;;;;5115195;28;20020;-68
2022/10/15 12:08:38;;;;;;;4.78;3.30;;;16.60;95.10;;;;;;5115183;28;20024;-68
2022/10/15 12:11:25;;;;;;;5.13;3.22;;;16.60;95.10;;;;;;5115227;28;20043;-68
2022/10/15 12:13:54;;;;;;;6.78;3.90;;;16.60;95.10;;;;;;5115107;28;20036;-68
2022/10/15 12:16:44;;;;;;;5.70;3.42;;;16.70;95.10;;;;;;5097124;28;20026;-68
2022/10/15 12:19:17;;;;;;;6.47;3.80;;;16.80;95.10;;;;;;5114968;28;20012;-68
2022/10/15 12:21:55;;;;;;;6.72;3.78;;;16.90;95.10;;;;;;5115038;28;20099;-68
2022/10/15 12:24:39;;;;;;;5.60;3.30;;;16.90;95.10;;;;;;5115008;28;20027;-68
2022/10/15 12:27:33;;;;;;;6.95;3.55;;;16.80;95.30;;;;;;5096838;28;20039;-68
2022/10/15 12:29:59;;;;;;;7.05;4.00;;;16.90;95.60;;;;;;5096818;28;20092;-68
2022/10/15 12:32:38;;;;;;;6.25;3.30;;;16.90;95.40;;;;;;5114679;28;20028;-68
2022/10/15 12:35:15;;;;;;;7.25;3.67;;;17.00;95.40;;;;;;5114486;28;20035;-69
2022/10/15 12:37:43;;;;;;;6.32;4.20;;;17.00;95.50;;;;;;5096706;28;20024;-68
2022/10/15 12:40:21;;;;;;;6.65;4.35;;;17.00;95.60;;;;;;5114500;28;20020;-68
2022/10/15 12:42:54;;;;;;;8.13;3.97;;;17.10;95.60;;;;;;5114512;28;20048;-68
2022/10/15 12:45:32;;;;;;;6.85;3.80;;;17.20;95.60;;;;;;5114396;28;20031;-68
2022/10/15 12:48:04;;;;;;;4.40;3.10;;;17.20;95.60;;;;;;5114442;28;20080;-68
2022/10/15 12:50:32;;;;;;;6.63;3.65;;;17.30;95.60;;;;;;5114332;28;20490;-68
2022/10/15 12:52:58;;;;;;;4.60;3.15;;;17.30;95.60;;;;;;5114320;28;20020;-68